sensor_id;sensor_type;location;lat;lon;timestamp;pressure;altitude;pressure_sealevel;temperature
45850;BMP180;10739;52.198;20.908;2023-05-31T00:01:47;101100.00;;;17.70
45850;BMP180;10739;52.198;20.908;2023-05-31T00:04:13;101100.00;;;17.60
45850;BMP180;10739;52.198;20.908;2023-05-31T00:06:39;101089.00;;;17.60
45850;BMP180;10739;52.198;20.908;2023-05-31T00:09:05;101093.00;;;17.60
45850;BMP180;10739;52.198;20.908;2023-05-31T00:11:32;101090.00;;;17.60
45850;BMP180;10739;52.198;20.908;2023-05-31T00:13:58;101089.00;;;17.30
45850;BMP180;10739;52.198;20.908;2023-05-31T00:16:24;101101.00;;;17.40
45850;BMP180;10739;52.198;20.908;2023-05-31T00:18:50;101108.00;;;17.30
45850;BMP180;10739;52.198;20.908;2023-05-31T00:21:17;101102.00;;;17.30
45850;BMP180;10739;52.198;20.908;2023-05-31T00:23:43;101105.00;;;17.50
45850;BMP180;10739;52.198;20.908;2023-05-31T00:26:09;101105.00;;;17.30
45850;BMP180;10739;52.198;20.908;2023-05-31T00:28:36;101092.00;;;17.40
45850;BMP180;10739;52.198;20.908;2023-05-31T00:31:03;101091.00;;;17.40
45850;BMP180;10739;52.198;20.908;2023-05-31T00:33:29;101088.00;;;17.30
45850;BMP180;10739;52.198;20.908;2023-05-31T00:35:55;101087.00;;;17.30
45850;BMP180;10739;52.198;20.908;2023-05-31T00:38:22;101101.00;;;17.50
45850;BMP180;10739;52.198;20.908;2023-05-31T00:40:48;101095.00;;;17.20
45850;BMP180;10739;52.198;20.908;2023-05-31T00:43:14;101107.00;;;17.10
45850;BMP180;10739;52.198;20.908;2023-05-31T00:45:41;101090.00;;;17.30
45850;BMP180;10739;52.198;20.908;2023-05-31T00:48:07;101102.00;;;17.20
45850;BMP180;10739;52.198;20.908;2023-05-31T00:50:34;101101.00;;;17.00
45850;BMP180;10739;52.198;20.908;2023-05-31T00:53:03;101099.00;;;17.10
45850;BMP180;10739;52.198;20.908;2023-05-31T00:55:32;101089.00;;;17.30
45850;BMP180;10739;52.198;20.908;2023-05-31T00:57:58;101095.00;;;17.40
45850;BMP180;10739;52.198;20.908;2023-05-31T01:00:25;101101.00;;;17.30
45850;BMP180;10739;52.198;20.908;2023-05-31T01:02:52;101108.00;;;17.10
45850;BMP180;10739;52.198;20.908;2023-05-31T01:05:18;101102.00;;;16.90
45850;BMP180;10739;52.198;20.908;2023-05-31T01:07:45;101105.00;;;16.60
45850;BMP180;10739;52.198;20.908;2023-05-31T01:10:13;101112.00;;;16.70
45850;BMP180;10739;52.198;20.908;2023-05-31T01:13:16;101108.00;;;16.50
45850;BMP180;10739;52.198;20.908;2023-05-31T01:16:10;101114.00;;;16.60
45850;BMP180;10739;52.198;20.908;2023-05-31T01:18:54;101112.00;;;16.60
45850;BMP180;10739;52.198;20.908;2023-05-31T01:21:40;101118.00;;;16.70
45850;BMP180;10739;52.198;20.908;2023-05-31T01:27:18;101111.00;;;16.60
45850;BMP180;10739;52.198;20.908;2023-05-31T01:29:46;101122.00;;;16.50
45850;BMP180;10739;52.198;20.908;2023-05-31T01:32:14;101127.00;;;16.60
45850;BMP180;10739;52.198;20.908;2023-05-31T01:34:45;101135.00;;;16.50
45850;BMP180;10739;52.198;20.908;2023-05-31T01:37:12;101136.00;;;16.40
45850;BMP180;10739;52.198;20.908;2023-05-31T01:39:38;101132.00;;;16.30
45850;BMP180;10739;52.198;20.908;2023-05-31T01:42:07;101133.00;;;16.30
45850;BMP180;10739;52.198;20.908;2023-05-31T01:44:37;101134.00;;;16.50
45850;BMP180;10739;52.198;20.908;2023-05-31T01:47:06;101134.00;;;16.30
45850;BMP180;10739;52.198;20.908;2023-05-31T01:49:38;101133.00;;;16.10
45850;BMP180;10739;52.198;20.908;2023-05-31T01:52:14;101141.00;;;15.90
45850;BMP180;10739;52.198;20.908;2023-05-31T01:54:41;101146.00;;;15.90
45850;BMP180;10739;52.198;20.908;2023-05-31T01:57:08;101142.00;;;16.00
45850;BMP180;10739;52.198;20.908;2023-05-31T01:59:37;101146.00;;;16.00
45850;BMP180;10739;52.198;20.908;2023-05-31T02:02:05;101136.00;;;16.00
45850;BMP180;10739;52.198;20.908;2023-05-31T02:04:31;101141.00;;;16.10
45850;BMP180;10739;52.198;20.908;2023-05-31T02:06:58;101146.00;;;16.00
45850;BMP180;10739;52.198;20.908;2023-05-31T02:09:26;101144.00;;;15.80
45850;BMP180;10739;52.198;20.908;2023-05-31T02:11:52;101142.00;;;15.60
45850;BMP180;10739;52.198;20.908;2023-05-31T02:14:19;101144.00;;;15.60
45850;BMP180;10739;52.198;20.908;2023-05-31T02:16:45;101138.00;;;15.50
45850;BMP180;10739;52.198;20.908;2023-05-31T02:19:12;101143.00;;;15.20
45850;BMP180;10739;52.198;20.908;2023-05-31T02:21:40;101161.00;;;15.10
45850;BMP180;10739;52.198;20.908;2023-05-31T02:24:07;101148.00;;;14.90
45850;BMP180;10739;52.198;20.908;2023-05-31T02:26:33;101150.00;;;14.90
45850;BMP180;10739;52.198;20.908;2023-05-31T02:29:00;101150.00;;;14.90
45850;BMP180;10739;52.198;20.908;2023-05-31T02:31:26;101134.00;;;14.80
45850;BMP180;10739;52.198;20.908;2023-05-31T02:33:52;101151.00;;;14.70
45850;BMP180;10739;52.198;20.908;2023-05-31T02:36:19;101153.00;;;14.50
45850;BMP180;10739;52.198;20.908;2023-05-31T02:38:45;101155.00;;;14.50
45850;BMP180;10739;52.198;20.908;2023-05-31T02:41:11;101150.00;;;14.40
45850;BMP180;10739;52.198;20.908;2023-05-31T02:43:38;101152.00;;;14.50
45850;BMP180;10739;52.198;20.908;2023-05-31T02:46:05;101153.00;;;14.30
45850;BMP180;10739;52.198;20.908;2023-05-31T02:48:31;101154.00;;;14.40
45850;BMP180;10739;52.198;20.908;2023-05-31T02:50:58;101156.00;;;14.40
45850;BMP180;10739;52.198;20.908;2023-05-31T02:53:24;101156.00;;;14.40
45850;BMP180;10739;52.198;20.908;2023-05-31T02:55:52;101161.00;;;14.50
45850;BMP180;10739;52.198;20.908;2023-05-31T02:58:19;101163.00;;;14.50
45850;BMP180;10739;52.198;20.908;2023-05-31T03:00:46;101166.00;;;14.60
45850;BMP180;10739;52.198;20.908;2023-05-31T03:03:12;101156.00;;;14.60
45850;BMP180;10739;52.198;20.908;2023-05-31T03:05:39;101164.00;;;14.60
45850;BMP180;10739;52.198;20.908;2023-05-31T03:08:06;101172.00;;;14.70
45850;BMP180;10739;52.198;20.908;2023-05-31T03:10:32;101176.00;;;14.60
45850;BMP180;10739;52.198;20.908;2023-05-31T03:12:58;101164.00;;;14.60
45850;BMP180;10739;52.198;20.908;2023-05-31T03:15:25;101169.00;;;14.70
45850;BMP180;10739;52.198;20.908;2023-05-31T03:17:51;101166.00;;;14.70
45850;BMP180;10739;52.198;20.908;2023-05-31T03:20:17;101162.00;;;14.80
45850;BMP180;10739;52.198;20.908;2023-05-31T03:22:44;101166.00;;;14.90
45850;BMP180;10739;52.198;20.908;2023-05-31T03:25:10;101168.00;;;14.80
45850;BMP180;10739;52.198;20.908;2023-05-31T03:27:36;101165.00;;;14.90
45850;BMP180;10739;52.198;20.908;2023-05-31T03:30:03;101173.00;;;14.90
45850;BMP180;10739;52.198;20.908;2023-05-31T03:32:30;101164.00;;;14.80
45850;BMP180;10739;52.198;20.908;2023-05-31T03:34:56;101170.00;;;14.80
45850;BMP180;10739;52.198;20.908;2023-05-31T03:37:22;101160.00;;;14.90
45850;BMP180;10739;52.198;20.908;2023-05-31T03:39:49;101170.00;;;14.70
45850;BMP180;10739;52.198;20.908;2023-05-31T03:42:16;101166.00;;;14.90
45850;BMP180;10739;52.198;20.908;2023-05-31T03:44:42;101170.00;;;15.00
45850;BMP180;10739;52.198;20.908;2023-05-31T03:47:09;101166.00;;;15.10
45850;BMP180;10739;52.198;20.908;2023-05-31T03:49:37;101153.00;;;15.10
45850;BMP180;10739;52.198;20.908;2023-05-31T03:52:03;101166.00;;;14.70
45850;BMP180;10739;52.198;20.908;2023-05-31T03:54:30;101161.00;;;14.80
45850;BMP180;10739;52.198;20.908;2023-05-31T03:56:56;101169.00;;;14.90
45850;BMP180;10739;52.198;20.908;2023-05-31T03:59:22;101166.00;;;15.00
45850;BMP180;10739;52.198;20.908;2023-05-31T04:01:49;101166.00;;;15.10
45850;BMP180;10739;52.198;20.908;2023-05-31T04:04:15;101172.00;;;15.00
45850;BMP180;10739;52.198;20.908;2023-05-31T04:06:41;101164.00;;;14.90
45850;BMP180;10739;52.198;20.908;2023-05-31T04:09:08;101173.00;;;14.60
45850;BMP180;10739;52.198;20.908;2023-05-31T04:11:34;101170.00;;;14.80
45850;BMP180;10739;52.198;20.908;2023-05-31T04:14:00;101167.00;;;14.80
45850;BMP180;10739;52.198;20.908;2023-05-31T04:16:27;101152.00;;;14.70
45850;BMP180;10739;52.198;20.908;2023-05-31T04:18:53;101162.00;;;14.70
45850;BMP180;10739;52.198;20.908;2023-05-31T04:21:19;101164.00;;;14.90
45850;BMP180;10739;52.198;20.908;2023-05-31T04:23:46;101172.00;;;15.30
45850;BMP180;10739;52.198;20.908;2023-05-31T04:26:12;101167.00;;;15.20
45850;BMP180;10739;52.198;20.908;2023-05-31T04:28:45;101156.00;;;15.70
45850;BMP180;10739;52.198;20.908;2023-05-31T04:31:20;101159.00;;;15.90
45850;BMP180;10739;52.198;20.908;2023-05-31T04:33:51;101162.00;;;16.00
45850;BMP180;10739;52.198;20.908;2023-05-31T04:36:23;101155.00;;;15.70
45850;BMP180;10739;52.198;20.908;2023-05-31T04:38:50;101157.00;;;16.10
45850;BMP180;10739;52.198;20.908;2023-05-31T04:41:17;101159.00;;;16.20
45850;BMP180;10739;52.198;20.908;2023-05-31T04:43:43;101152.00;;;16.40
45850;BMP180;10739;52.198;20.908;2023-05-31T04:46:10;101158.00;;;16.50
45850;BMP180;10739;52.198;20.908;2023-05-31T04:48:36;101158.00;;;16.50
45850;BMP180;10739;52.198;20.908;2023-05-31T04:51:03;101157.00;;;16.50
45850;BMP180;10739;52.198;20.908;2023-05-31T04:53:30;101162.00;;;16.30
45850;BMP180;10739;52.198;20.908;2023-05-31T04:55:56;101153.00;;;16.20
45850;BMP180;10739;52.198;20.908;2023-05-31T04:58:22;101164.00;;;16.40
45850;BMP180;10739;52.198;20.908;2023-05-31T05:00:49;101157.00;;;16.50
45850;BMP180;10739;52.198;20.908;2023-05-31T05:03:15;101160.00;;;16.50
45850;BMP180;10739;52.198;20.908;2023-05-31T05:05:44;101152.00;;;16.50
45850;BMP180;10739;52.198;20.908;2023-05-31T05:08:10;101151.00;;;17.00
45850;BMP180;10739;52.198;20.908;2023-05-31T05:10:36;101157.00;;;16.90
45850;BMP180;10739;52.198;20.908;2023-05-31T05:13:03;101159.00;;;17.20
45850;BMP180;10739;52.198;20.908;2023-05-31T05:15:29;101154.00;;;17.10
45850;BMP180;10739;52.198;20.908;2023-05-31T05:17:55;101152.00;;;17.50
45850;BMP180;10739;52.198;20.908;2023-05-31T05:20:22;101150.00;;;17.50
45850;BMP180;10739;52.198;20.908;2023-05-31T05:22:51;101146.00;;;17.70
45850;BMP180;10739;52.198;20.908;2023-05-31T05:25:20;101147.00;;;17.70
45850;BMP180;10739;52.198;20.908;2023-05-31T05:27:48;101146.00;;;17.30
45850;BMP180;10739;52.198;20.908;2023-05-31T05:30:16;101156.00;;;17.60
45850;BMP180;10739;52.198;20.908;2023-05-31T05:32:43;101152.00;;;17.80
45850;BMP180;10739;52.198;20.908;2023-05-31T05:35:09;101155.00;;;17.40
45850;BMP180;10739;52.198;20.908;2023-05-31T05:37:35;101163.00;;;17.90
45850;BMP180;10739;52.198;20.908;2023-05-31T05:40:02;101146.00;;;17.80
45850;BMP180;10739;52.198;20.908;2023-05-31T05:42:28;101162.00;;;17.90
45850;BMP180;10739;52.198;20.908;2023-05-31T05:44:54;101166.00;;;17.80
45850;BMP180;10739;52.198;20.908;2023-05-31T05:47:21;101157.00;;;18.00
45850;BMP180;10739;52.198;20.908;2023-05-31T05:49:47;101155.00;;;18.20
45850;BMP180;10739;52.198;20.908;2023-05-31T05:52:14;101153.00;;;17.80
45850;BMP180;10739;52.198;20.908;2023-05-31T05:54:41;101164.00;;;18.00
45850;BMP180;10739;52.198;20.908;2023-05-31T05:57:07;101155.00;;;17.90
45850;BMP180;10739;52.198;20.908;2023-05-31T05:59:34;101159.00;;;17.50
45850;BMP180;10739;52.198;20.908;2023-05-31T06:02:00;101164.00;;;17.90
45850;BMP180;10739;52.198;20.908;2023-05-31T06:04:26;101154.00;;;18.10
45850;BMP180;10739;52.198;20.908;2023-05-31T06:06:53;101163.00;;;18.40
45850;BMP180;10739;52.198;20.908;2023-05-31T06:09:19;101164.00;;;18.30
45850;BMP180;10739;52.198;20.908;2023-05-31T06:11:45;101161.00;;;18.10
45850;BMP180;10739;52.198;20.908;2023-05-31T06:14:12;101161.00;;;18.10
45850;BMP180;10739;52.198;20.908;2023-05-31T06:16:38;101150.00;;;18.20
45850;BMP180;10739;52.198;20.908;2023-05-31T06:19:04;101160.00;;;18.20
45850;BMP180;10739;52.198;20.908;2023-05-31T06:21:31;101154.00;;;18.50
45850;BMP180;10739;52.198;20.908;2023-05-31T06:23:58;101158.00;;;18.60
45850;BMP180;10739;52.198;20.908;2023-05-31T06:26:24;101153.00;;;18.80
45850;BMP180;10739;52.198;20.908;2023-05-31T06:28:51;101155.00;;;19.00
45850;BMP180;10739;52.198;20.908;2023-05-31T06:31:18;101158.00;;;19.10
45850;BMP180;10739;52.198;20.908;2023-05-31T06:33:44;101151.00;;;18.70
45850;BMP180;10739;52.198;20.908;2023-05-31T06:36:10;101149.00;;;18.40
45850;BMP180;10739;52.198;20.908;2023-05-31T06:38:37;101144.00;;;18.40
45850;BMP180;10739;52.198;20.908;2023-05-31T06:41:03;101139.00;;;18.50
45850;BMP180;10739;52.198;20.908;2023-05-31T06:43:31;101151.00;;;18.30
45850;BMP180;10739;52.198;20.908;2023-05-31T06:45:57;101152.00;;;18.50
45850;BMP180;10739;52.198;20.908;2023-05-31T06:48:24;101149.00;;;19.00
45850;BMP180;10739;52.198;20.908;2023-05-31T06:50:50;101151.00;;;19.10
45850;BMP180;10739;52.198;20.908;2023-05-31T06:53:17;101143.00;;;19.30
45850;BMP180;10739;52.198;20.908;2023-05-31T06:55:43;101142.00;;;19.50
45850;BMP180;10739;52.198;20.908;2023-05-31T06:58:10;101143.00;;;19.20
45850;BMP180;10739;52.198;20.908;2023-05-31T07:00:36;101140.00;;;19.30
45850;BMP180;10739;52.198;20.908;2023-05-31T07:03:03;101143.00;;;19.50
45850;BMP180;10739;52.198;20.908;2023-05-31T07:05:29;101139.00;;;19.60
45850;BMP180;10739;52.198;20.908;2023-05-31T07:07:57;101141.00;;;20.00
45850;BMP180;10739;52.198;20.908;2023-05-31T07:10:24;101138.00;;;19.90
45850;BMP180;10739;52.198;20.908;2023-05-31T07:12:50;101131.00;;;20.00
45850;BMP180;10739;52.198;20.908;2023-05-31T07:15:17;101135.00;;;20.20
45850;BMP180;10739;52.198;20.908;2023-05-31T07:17:43;101129.00;;;20.20
45850;BMP180;10739;52.198;20.908;2023-05-31T07:20:10;101140.00;;;20.30
45850;BMP180;10739;52.198;20.908;2023-05-31T07:22:36;101129.00;;;20.40
45850;BMP180;10739;52.198;20.908;2023-05-31T07:25:03;101121.00;;;20.70
45850;BMP180;10739;52.198;20.908;2023-05-31T07:27:30;101129.00;;;20.30
45850;BMP180;10739;52.198;20.908;2023-05-31T07:29:57;101122.00;;;20.70
45850;BMP180;10739;52.198;20.908;2023-05-31T07:32:23;101129.00;;;20.80
45850;BMP180;10739;52.198;20.908;2023-05-31T07:34:49;101121.00;;;21.10
45850;BMP180;10739;52.198;20.908;2023-05-31T07:37:16;101116.00;;;21.10
45850;BMP180;10739;52.198;20.908;2023-05-31T07:39:43;101113.00;;;21.30
45850;BMP180;10739;52.198;20.908;2023-05-31T07:42:11;101113.00;;;21.40
45850;BMP180;10739;52.198;20.908;2023-05-31T07:44:39;101113.00;;;21.60
45850;BMP180;10739;52.198;20.908;2023-05-31T07:47:06;101100.00;;;21.30
45850;BMP180;10739;52.198;20.908;2023-05-31T07:49:32;101100.00;;;21.80
45850;BMP180;10739;52.198;20.908;2023-05-31T07:51:59;101110.00;;;21.80
45850;BMP180;10739;52.198;20.908;2023-05-31T07:54:25;101106.00;;;22.20
45850;BMP180;10739;52.198;20.908;2023-05-31T07:56:52;101102.00;;;22.20
45850;BMP180;10739;52.198;20.908;2023-05-31T07:59:18;101102.00;;;21.90
45850;BMP180;10739;52.198;20.908;2023-05-31T08:01:45;101102.00;;;21.90
45850;BMP180;10739;52.198;20.908;2023-05-31T08:04:12;101089.00;;;22.20
45850;BMP180;10739;52.198;20.908;2023-05-31T08:06:38;101094.00;;;22.50
45850;BMP180;10739;52.198;20.908;2023-05-31T08:09:05;101094.00;;;22.90
45850;BMP180;10739;52.198;20.908;2023-05-31T08:11:33;101087.00;;;22.60
45850;BMP180;10739;52.198;20.908;2023-05-31T08:14:03;101088.00;;;22.50
45850;BMP180;10739;52.198;20.908;2023-05-31T08:16:31;101091.00;;;21.40
45850;BMP180;10739;52.198;20.908;2023-05-31T08:18:58;101079.00;;;21.10
45850;BMP180;10739;52.198;20.908;2023-05-31T08:21:25;101088.00;;;21.40
45850;BMP180;10739;52.198;20.908;2023-05-31T08:23:51;101088.00;;;21.70
45850;BMP180;10739;52.198;20.908;2023-05-31T08:26:17;101086.00;;;22.00
45850;BMP180;10739;52.198;20.908;2023-05-31T08:28:44;101095.00;;;22.80
45850;BMP180;10739;52.198;20.908;2023-05-31T08:31:11;101091.00;;;23.10
45850;BMP180;10739;52.198;20.908;2023-05-31T08:33:37;101091.00;;;23.00
45850;BMP180;10739;52.198;20.908;2023-05-31T08:36:08;101091.00;;;23.30
45850;BMP180;10739;52.198;20.908;2023-05-31T08:38:38;101085.00;;;23.60
45850;BMP180;10739;52.198;20.908;2023-05-31T08:41:06;101077.00;;;23.50
45850;BMP180;10739;52.198;20.908;2023-05-31T08:43:33;101091.00;;;24.00
45850;BMP180;10739;52.198;20.908;2023-05-31T08:46:00;101072.00;;;23.80
45850;BMP180;10739;52.198;20.908;2023-05-31T08:48:53;101081.00;;;22.60
45850;BMP180;10739;52.198;20.908;2023-05-31T08:51:23;101079.00;;;22.70
45850;BMP180;10739;52.198;20.908;2023-05-31T08:53:50;101074.00;;;23.20
45850;BMP180;10739;52.198;20.908;2023-05-31T08:56:19;101069.00;;;24.10
45850;BMP180;10739;52.198;20.908;2023-05-31T08:58:50;101069.00;;;24.60
45850;BMP180;10739;52.198;20.908;2023-05-31T09:01:20;101066.00;;;24.50
45850;BMP180;10739;52.198;20.908;2023-05-31T09:03:50;101066.00;;;24.90
45850;BMP180;10739;52.198;20.908;2023-05-31T09:06:19;101071.00;;;25.30
45850;BMP180;10739;52.198;20.908;2023-05-31T09:08:45;101071.00;;;25.70
45850;BMP180;10739;52.198;20.908;2023-05-31T09:11:13;101078.00;;;26.00
45850;BMP180;10739;52.198;20.908;2023-05-31T09:13:40;101080.00;;;25.60
45850;BMP180;10739;52.198;20.908;2023-05-31T09:16:07;101092.00;;;25.50
45850;BMP180;10739;52.198;20.908;2023-05-31T09:18:40;101090.00;;;25.60
45850;BMP180;10739;52.198;20.908;2023-05-31T09:21:11;101090.00;;;25.60
45850;BMP180;10739;52.198;20.908;2023-05-31T09:23:38;101076.00;;;25.80
45850;BMP180;10739;52.198;20.908;2023-05-31T09:26:08;101074.00;;;25.90
45850;BMP180;10739;52.198;20.908;2023-05-31T09:28:35;101078.00;;;25.80
45850;BMP180;10739;52.198;20.908;2023-05-31T09:31:03;101078.00;;;25.90
45850;BMP180;10739;52.198;20.908;2023-05-31T09:33:43;101069.00;;;26.40
45850;BMP180;10739;52.198;20.908;2023-05-31T09:36:11;101068.00;;;26.50
45850;BMP180;10739;52.198;20.908;2023-05-31T09:38:40;101064.00;;;26.70
45850;BMP180;10739;52.198;20.908;2023-05-31T09:41:18;101069.00;;;25.90
45850;BMP180;10739;52.198;20.908;2023-05-31T09:43:50;101069.00;;;26.20
45850;BMP180;10739;52.198;20.908;2023-05-31T09:46:21;101068.00;;;27.00
45850;BMP180;10739;52.198;20.908;2023-05-31T09:49:05;101076.00;;;26.90
45850;BMP180;10739;52.198;20.908;2023-05-31T09:51:33;101066.00;;;26.10
45850;BMP180;10739;52.198;20.908;2023-05-31T09:54:15;101064.00;;;26.90
45850;BMP180;10739;52.198;20.908;2023-05-31T09:56:43;101071.00;;;27.60
45850;BMP180;10739;52.198;20.908;2023-05-31T09:59:10;101062.00;;;27.30
45850;BMP180;10739;52.198;20.908;2023-05-31T10:01:37;101061.00;;;28.00
45850;BMP180;10739;52.198;20.908;2023-05-31T10:04:04;101064.00;;;27.00
45850;BMP180;10739;52.198;20.908;2023-05-31T10:06:32;101058.00;;;27.40
45850;BMP180;10739;52.198;20.908;2023-05-31T10:09:06;101052.00;;;28.30
45850;BMP180;10739;52.198;20.908;2023-05-31T10:11:41;101053.00;;;28.50
45850;BMP180;10739;52.198;20.908;2023-05-31T10:14:18;101059.00;;;28.70
45850;BMP180;10739;52.198;20.908;2023-05-31T10:16:50;101047.00;;;28.80
45850;BMP180;10739;52.198;20.908;2023-05-31T10:19:59;101041.00;;;29.10
45850;BMP180;10739;52.198;20.908;2023-05-31T10:22:30;101049.00;;;29.60
45850;BMP180;10739;52.198;20.908;2023-05-31T10:25:13;101058.00;;;29.90
45850;BMP180;10739;52.198;20.908;2023-05-31T10:27:44;101047.00;;;29.90
45850;BMP180;10739;52.198;20.908;2023-05-31T10:30:13;101053.00;;;28.90
45850;BMP180;10739;52.198;20.908;2023-05-31T10:32:50;101048.00;;;29.70
45850;BMP180;10739;52.198;20.908;2023-05-31T10:35:19;101046.00;;;29.20
45850;BMP180;10739;52.198;20.908;2023-05-31T10:37:46;101057.00;;;29.30
45850;BMP180;10739;52.198;20.908;2023-05-31T10:40:17;101054.00;;;29.40
45850;BMP180;10739;52.198;20.908;2023-05-31T10:45:51;101048.00;;;30.10
45850;BMP180;10739;52.198;20.908;2023-05-31T10:51:01;101035.00;;;30.10
45850;BMP180;10739;52.198;20.908;2023-05-31T10:53:38;101037.00;;;30.20
45850;BMP180;10739;52.198;20.908;2023-05-31T10:56:08;101045.00;;;30.30
45850;BMP180;10739;52.198;20.908;2023-05-31T10:58:48;101036.00;;;30.80
45850;BMP180;10739;52.198;20.908;2023-05-31T11:01:16;101034.00;;;30.40
45850;BMP180;10739;52.198;20.908;2023-05-31T11:03:52;101035.00;;;30.80
45850;BMP180;10739;52.198;20.908;2023-05-31T11:06:30;101033.00;;;30.90
45850;BMP180;10739;52.198;20.908;2023-05-31T11:09:17;101029.00;;;31.60
45850;BMP180;10739;52.198;20.908;2023-05-31T11:11:49;101027.00;;;31.70
45850;BMP180;10739;52.198;20.908;2023-05-31T11:19:34;101028.00;;;32.00
45850;BMP180;10739;52.198;20.908;2023-05-31T11:22:09;101021.00;;;31.60
45850;BMP180;10739;52.198;20.908;2023-05-31T11:27:37;101004.00;;;31.60
45850;BMP180;10739;52.198;20.908;2023-05-31T11:30:17;101007.00;;;30.70
45850;BMP180;10739;52.198;20.908;2023-05-31T11:32:56;101009.00;;;30.60
45850;BMP180;10739;52.198;20.908;2023-05-31T11:35:23;101009.00;;;30.90
45850;BMP180;10739;52.198;20.908;2023-05-31T11:38:02;101007.00;;;30.90
45850;BMP180;10739;52.198;20.908;2023-05-31T11:40:29;101000.00;;;31.20
45850;BMP180;10739;52.198;20.908;2023-05-31T11:43:04;100998.00;;;32.00
45850;BMP180;10739;52.198;20.908;2023-05-31T11:45:33;100994.00;;;31.60
45850;BMP180;10739;52.198;20.908;2023-05-31T11:48:17;100990.00;;;31.60
45850;BMP180;10739;52.198;20.908;2023-05-31T11:50:47;100994.00;;;31.10
45850;BMP180;10739;52.198;20.908;2023-05-31T11:53:14;100993.00;;;30.00
45850;BMP180;10739;52.198;20.908;2023-05-31T11:55:47;100984.00;;;29.80
45850;BMP180;10739;52.198;20.908;2023-05-31T11:58:14;100975.00;;;29.90
45850;BMP180;10739;52.198;20.908;2023-05-31T12:00:45;100968.00;;;30.00
45850;BMP180;10739;52.198;20.908;2023-05-31T12:03:16;100979.00;;;30.90
45850;BMP180;10739;52.198;20.908;2023-05-31T12:05:49;100970.00;;;31.00
45850;BMP180;10739;52.198;20.908;2023-05-31T12:08:17;100967.00;;;30.30
45850;BMP180;10739;52.198;20.908;2023-05-31T12:10:43;100964.00;;;30.80
45850;BMP180;10739;52.198;20.908;2023-05-31T12:13:15;100964.00;;;30.50
45850;BMP180;10739;52.198;20.908;2023-05-31T12:15:41;100964.00;;;32.50
45850;BMP180;10739;52.198;20.908;2023-05-31T12:18:07;100967.00;;;33.20
45850;BMP180;10739;52.198;20.908;2023-05-31T12:20:34;100964.00;;;31.70
45850;BMP180;10739;52.198;20.908;2023-05-31T12:23:15;100957.00;;;31.20
45850;BMP180;10739;52.198;20.908;2023-05-31T12:25:49;100955.00;;;32.10
45850;BMP180;10739;52.198;20.908;2023-05-31T12:28:20;100950.00;;;32.70
45850;BMP180;10739;52.198;20.908;2023-05-31T12:30:49;100939.00;;;32.70
45850;BMP180;10739;52.198;20.908;2023-05-31T12:33:17;100952.00;;;33.00
45850;BMP180;10739;52.198;20.908;2023-05-31T12:35:46;100943.00;;;33.40
45850;BMP180;10739;52.198;20.908;2023-05-31T12:38:13;100941.00;;;33.80
45850;BMP180;10739;52.198;20.908;2023-05-31T12:40:43;100939.00;;;32.60
45850;BMP180;10739;52.198;20.908;2023-05-31T12:43:13;100935.00;;;33.10
45850;BMP180;10739;52.198;20.908;2023-05-31T12:45:44;100930.00;;;33.30
45850;BMP180;10739;52.198;20.908;2023-05-31T12:48:10;100928.00;;;33.70
45850;BMP180;10739;52.198;20.908;2023-05-31T12:50:47;100934.00;;;34.10
45850;BMP180;10739;52.198;20.908;2023-05-31T12:53:13;100929.00;;;33.90
45850;BMP180;10739;52.198;20.908;2023-05-31T12:55:40;100919.00;;;33.80
45850;BMP180;10739;52.198;20.908;2023-05-31T12:58:08;100911.00;;;33.50
45850;BMP180;10739;52.198;20.908;2023-05-31T13:00:34;100907.00;;;34.20
45850;BMP180;10739;52.198;20.908;2023-05-31T13:03:02;100917.00;;;34.70
45850;BMP180;10739;52.198;20.908;2023-05-31T13:05:29;100910.00;;;34.60
45850;BMP180;10739;52.198;20.908;2023-05-31T13:07:55;100904.00;;;34.80
45850;BMP180;10739;52.198;20.908;2023-05-31T13:10:22;100904.00;;;35.50
45850;BMP180;10739;52.198;20.908;2023-05-31T13:12:48;100907.00;;;34.60
45850;BMP180;10739;52.198;20.908;2023-05-31T13:15:14;100898.00;;;34.50
45850;BMP180;10739;52.198;20.908;2023-05-31T13:17:40;100895.00;;;34.60
45850;BMP180;10739;52.198;20.908;2023-05-31T13:20:08;100895.00;;;34.10
45850;BMP180;10739;52.198;20.908;2023-05-31T13:22:35;100898.00;;;33.80
45850;BMP180;10739;52.198;20.908;2023-05-31T13:25:01;100890.00;;;34.60
45850;BMP180;10739;52.198;20.908;2023-05-31T13:27:27;100886.00;;;33.80
45850;BMP180;10739;52.198;20.908;2023-05-31T13:29:54;100880.00;;;34.00
45850;BMP180;10739;52.198;20.908;2023-05-31T13:32:20;100883.00;;;35.70
45850;BMP180;10739;52.198;20.908;2023-05-31T13:34:46;100881.00;;;35.50
45850;BMP180;10739;52.198;20.908;2023-05-31T13:37:13;100876.00;;;35.50
45850;BMP180;10739;52.198;20.908;2023-05-31T13:39:39;100867.00;;;35.80
45850;BMP180;10739;52.198;20.908;2023-05-31T13:42:07;100863.00;;;34.70
45850;BMP180;10739;52.198;20.908;2023-05-31T13:44:33;100870.00;;;33.30
45850;BMP180;10739;52.198;20.908;2023-05-31T13:47:00;100865.00;;;32.80
45850;BMP180;10739;52.198;20.908;2023-05-31T13:49:26;100861.00;;;32.20
45850;BMP180;10739;52.198;20.908;2023-05-31T13:51:52;100853.00;;;33.20
45850;BMP180;10739;52.198;20.908;2023-05-31T13:54:19;100851.00;;;33.70
45850;BMP180;10739;52.198;20.908;2023-05-31T13:56:45;100846.00;;;34.20
45850;BMP180;10739;52.198;20.908;2023-05-31T13:59:11;100839.00;;;34.60
45850;BMP180;10739;52.198;20.908;2023-05-31T14:01:38;100839.00;;;35.10
45850;BMP180;10739;52.198;20.908;2023-05-31T14:04:04;100834.00;;;33.30
45850;BMP180;10739;52.198;20.908;2023-05-31T14:06:31;100827.00;;;33.70
45850;BMP180;10739;52.198;20.908;2023-05-31T14:08:57;100827.00;;;33.90